Argyle, Iowa
Current Conditions -  °F | °C
As of 4:15 AM on Sunday 25 Jan 2015 (Local Time) from KEOK Reporting Station
Unknown Precip Unknown Precip  
Wind Chill: 39°   Ceiling: 2200
Heat Index: 39°   Visibility: 9mi
Dew Point: 37°   Wind: 0mph
Humidity: 93%   Direction: NA
Pressure: 29.56"   Gusts: NA
Location:  40.53°N, 91.57°W
Report Text: KEOK 251015Z AUTO 00000KT 9SM -UP FEW016 OVC022 04/03 A2956 RMK AO2
Loading
Personal Weather Stations






























Interactive Weather Map New forecast layout! Learn more

10-Day Weather Forecast

Advertisements
Track Severe Weather on mobile